Time;durP1;ratioP1;P1;durP2;ratioP2;P2;SDS_P1;SDS_P2;PMS_P1;PMS_P2;Temp;Humidity;BMP_temperature;BMP_pressure;BME280_temperature;BME280_humidity;BME280_pressure;Samples;Min_cycle;Max_cycle;Signal;HPM_P1;HPM_P2
2022/07/26 00:01:24;;;;;;;4.87;2.90;;;26.50;74.10;;;;;;5023456;28;20230;-76
2022/07/26 00:03:50;;;;;;;3.60;3.07;;;26.60;74.20;;;;;;5028198;28;20653;-79
2022/07/26 00:06:17;;;;;;;3.17;2.80;;;26.60;74.20;;;;;;5018755;28;20659;-77
2022/07/26 00:08:43;;;;;;;3.13;2.83;;;26.70;73.80;;;;;;5029326;28;20521;-77
2022/07/26 00:11:09;;;;;;;3.63;3.10;;;26.60;74.00;;;;;;5030334;28;20418;-76
2022/07/26 00:13:34;;;;;;;2.97;2.77;;;26.60;74.10;;;;;;5021849;28;20455;-76
2022/07/26 00:16:01;;;;;;;3.37;3.00;;;26.40;74.70;;;;;;5026440;28;20449;-76
2022/07/26 00:18:27;;;;;;;4.63;3.10;;;26.30;75.20;;;;;;5025596;28;20191;-76
2022/07/26 00:20:53;;;;;;;3.37;3.00;;;26.30;75.60;;;;;;5021819;28;20538;-76
2022/07/26 00:23:19;;;;;;;3.27;2.97;;;26.30;75.70;;;;;;5025127;28;20435;-76
2022/07/26 00:25:45;;;;;;;4.00;3.03;;;26.30;76.30;;;;;;5025816;28;20511;-77
2022/07/26 00:28:11;;;;;;;3.23;2.93;;;26.40;76.40;;;;;;5025155;28;20189;-76
2022/07/26 00:30:40;;;;;;;4.50;3.00;;;26.40;76.30;;;;;;5026638;28;20488;-77
2022/07/26 00:33:06;;;;;;;8.23;3.50;;;26.50;76.60;;;;;;5022276;28;20438;-77
2022/07/26 00:35:32;;;;;;;7.10;3.87;;;26.40;76.70;;;;;;5020863;28;20475;-76
2022/07/26 00:37:58;;;;;;;3.10;2.70;;;26.40;76.80;;;;;;5022280;28;20659;-76
2022/07/26 00:40:24;;;;;;;3.53;3.10;;;26.50;77.00;;;;;;5026092;28;20434;-76
2022/07/26 00:42:50;;;;;;;4.00;3.37;;;26.40;77.00;;;;;;5027692;28;20431;-76
2022/07/26 00:45:17;;;;;;;8.90;3.30;;;26.50;77.40;;;;;;5025619;28;20487;-77
2022/07/26 00:47:43;;;;;;;2.80;2.50;;;26.40;77.60;;;;;;5044202;28;20450;-76
2022/07/26 00:50:15;;;;;;;3.30;3.00;;;26.40;78.00;;;;;;5025405;28;20763;-76
2022/07/26 00:52:46;;;;;;;3.90;3.03;;;26.40;78.00;;;;;;5027318;28;20539;-75
2022/07/26 00:55:13;;;;;;;5.40;3.23;;;26.40;78.10;;;;;;5041879;28;20815;-76
2022/07/26 00:57:41;;;;;;;4.13;3.10;;;26.30;78.50;;;;;;5027568;28;21103;-76
2022/07/26 01:00:13;;;;;;;3.10;2.67;;;26.40;78.70;;;;;;5029462;28;20601;-75
2022/07/26 01:02:39;;;;;;;2.83;2.63;;;26.40;78.80;;;;;;5025622;28;20437;-75
2022/07/26 01:05:06;;;;;;;3.80;2.57;;;26.30;78.90;;;;;;5026636;28;20435;-75
2022/07/26 01:07:31;;;;;;;3.03;2.83;;;26.20;79.50;;;;;;5025159;28;20435;-74
2022/07/26 01:09:57;;;;;;;3.60;2.80;;;26.30;79.70;;;;;;5026702;28;20854;-75
2022/07/26 01:12:23;;;;;;;3.20;2.90;;;26.20;79.70;;;;;;5025408;28;20234;-75
2022/07/26 01:14:49;;;;;;;4.10;3.00;;;26.00;80.00;;;;;;5025632;28;20580;-75
2022/07/26 01:17:15;;;;;;;4.10;2.70;;;25.90;80.30;;;;;;5024855;28;20195;-75
2022/07/26 01:19:41;;;;;;;3.50;3.20;;;25.90;80.60;;;;;;5026643;28;20190;-75
2022/07/26 01:22:07;;;;;;;4.13;2.77;;;25.90;80.70;;;;;;5023825;28;20805;-75
2022/07/26 01:24:33;;;;;;;3.20;2.90;;;25.90;81.00;;;;;;5025494;28;20187;-76
2022/07/26 01:26:59;;;;;;;3.33;2.87;;;25.90;81.80;;;;;;5024509;28;20323;-75
2022/07/26 01:29:24;;;;;;;3.10;2.80;;;25.80;82.90;;;;;;5023790;28;20836;-75
2022/07/26 01:31:51;;;;;;;5.33;3.20;;;25.70;84.20;;;;;;5026947;28;20180;-75
2022/07/26 01:34:17;;;;;;;3.40;3.10;;;25.70;83.70;;;;;;5024388;28;20614;-76
2022/07/26 01:36:43;;;;;;;3.50;3.20;;;25.80;83.80;;;;;;5019296;28;20455;-76
2022/07/26 01:39:09;;;;;;;3.07;2.77;;;25.70;84.50;;;;;;5022714;28;20438;-76
2022/07/26 01:41:34;;;;;;;4.63;3.00;;;25.70;85.10;;;;;;5026082;28;20192;-76
2022/07/26 01:44:01;;;;;;;2.70;2.50;;;25.60;85.40;;;;;;5024676;28;20431;-76
2022/07/26 01:46:26;;;;;;;4.63;3.53;;;25.50;86.10;;;;;;5033825;28;20564;-76
2022/07/26 01:48:52;;;;;;;3.93;2.80;;;25.40;86.80;;;;;;5020150;28;20432;-75
2022/07/26 01:51:18;;;;;;;3.37;3.07;;;25.40;87.00;;;;;;5022158;28;20198;-75
2022/07/26 01:53:44;;;;;;;3.10;2.90;;;25.40;87.20;;;;;;5022436;28;20599;-75
2022/07/26 01:56:11;;;;;;;3.33;2.77;;;25.30;87.60;;;;;;5025752;28;20320;-75
2022/07/26 01:58:37;;;;;;;2.80;2.60;;;25.30;88.30;;;;;;5024129;28;20435;-75
2022/07/26 02:01:03;;;;;;;4.17;3.10;;;25.20;88.60;;;;;;5023543;28;20431;-75
2022/07/26 02:03:28;;;;;;;4.17;3.13;;;25.20;89.40;;;;;;5026087;28;20180;-76
2022/07/26 02:05:54;;;;;;;3.27;2.97;;;25.20;89.90;;;;;;5024220;28;20203;-76
2022/07/26 02:08:20;;;;;;;5.30;3.10;;;25.10;90.40;;;;;;5022367;28;20927;-75
2022/07/26 02:11:01;;;;;;;3.50;3.20;;;25.00;90.30;;;;;;5025724;28;20579;-76
2022/07/26 02:13:35;;;;;;;3.77;3.10;;;24.90;90.50;;;;;;5024015;28;20192;-75
2022/07/26 02:16:06;;;;;;;5.30;3.20;;;24.90;91.00;;;;;;5020521;28;20602;-75
2022/07/26 02:18:33;;;;;;;3.60;2.80;;;24.80;90.90;;;;;;5023795;28;20522;-76
2022/07/26 02:21:00;;;;;;;3.40;3.10;;;24.60;91.30;;;;;;5024099;28;20419;-76
2022/07/26 02:23:26;;;;;;;4.80;3.50;;;24.70;91.60;;;;;;5023997;28;20877;-75
2022/07/26 02:25:53;;;;;;;3.80;3.43;;;24.70;91.60;;;;;;5024875;28;20435;-76
2022/07/26 02:28:20;;;;;;;3.27;3.07;;;24.70;91.80;;;;;;5025831;28;20447;-76
2022/07/26 02:30:46;;;;;;;3.37;3.07;;;24.60;92.00;;;;;;5021610;28;20482;-76
2022/07/26 02:33:13;;;;;;;4.30;3.20;;;24.60;92.50;;;;;;5022378;28;20442;-76
2022/07/26 02:35:38;;;;;;;8.10;3.57;;;24.60;92.70;;;;;;5026534;28;20466;-76
2022/07/26 02:38:11;;;;;;;5.27;3.50;;;24.50;92.70;;;;;;5025608;28;20436;-76
2022/07/26 02:40:38;;;;;;;3.83;3.17;;;24.50;92.80;;;;;;5022196;28;20278;-76
2022/07/26 02:43:05;;;;;;;3.37;3.07;;;24.50;92.90;;;;;;5025974;28;21045;-75
2022/07/26 02:45:32;;;;;;;3.30;3.07;;;24.50;93.20;;;;;;5024910;28;20459;-76
2022/07/26 02:47:57;;;;;;;3.90;3.10;;;24.50;93.20;;;;;;5023127;28;20485;-73
2022/07/26 02:50:25;;;;;;;3.53;2.90;;;24.50;93.30;;;;;;5022694;28;20466;-74
2022/07/26 02:52:51;;;;;;;3.40;3.10;;;24.50;93.40;;;;;;5023753;28;20189;-74
2022/07/26 02:55:19;;;;;;;3.10;2.80;;;24.40;93.70;;;;;;5018080;28;20476;-74
2022/07/26 02:57:45;;;;;;;4.00;3.23;;;24.40;93.90;;;;;;5023874;28;20510;-74
2022/07/26 03:00:13;;;;;;;3.30;3.00;;;24.40;94.10;;;;;;5022245;28;20419;-74
2022/07/26 03:02:39;;;;;;;3.60;3.30;;;24.30;94.70;;;;;;5023722;28;20181;-73
2022/07/26 03:05:06;;;;;;;3.77;3.47;;;24.30;94.50;;;;;;5029125;28;20505;-74
2022/07/26 03:07:33;;;;;;;3.97;3.10;;;24.30;94.60;;;;;;5020849;28;20173;-74
2022/07/26 03:09:59;;;;;;;3.60;3.30;;;24.20;94.90;;;;;;5020783;28;20426;-74
2022/07/26 03:12:25;;;;;;;3.47;3.17;;;24.20;95.00;;;;;;5024202;28;20926;-73
2022/07/26 03:14:51;;;;;;;4.13;3.10;;;24.20;95.20;;;;;;5023260;28;20608;-73
2022/07/26 03:17:17;;;;;;;6.40;3.50;;;24.10;95.40;;;;;;5020373;28;20996;-73
2022/07/26 03:19:43;;;;;;;3.53;3.00;;;24.10;95.50;;;;;;5023858;28;20449;-73
2022/07/26 03:22:09;;;;;;;4.83;3.10;;;24.10;95.70;;;;;;5020586;28;20188;-73
2022/07/26 03:24:34;;;;;;;3.70;3.20;;;24.10;95.80;;;;;;5024783;28;20596;-73
2022/07/26 03:27:00;;;;;;;3.70;3.40;;;24.00;96.30;;;;;;5023857;28;20451;-73
2022/07/26 03:29:26;;;;;;;3.47;3.03;;;24.10;96.30;;;;;;5014601;28;20203;-73
2022/07/26 03:31:51;;;;;;;3.43;3.13;;;24.10;96.40;;;;;;5021882;28;20197;-73
2022/07/26 03:34:17;;;;;;;6.50;3.03;;;24.10;96.50;;;;;;5018209;28;20201;-74
2022/07/26 03:36:43;;;;;;;3.80;3.40;;;24.00;96.80;;;;;;5020015;28;20203;-74
2022/07/26 03:39:09;;;;;;;3.73;3.43;;;23.90;97.10;;;;;;5017910;28;20447;-73
2022/07/26 03:41:35;;;;;;;5.50;3.47;;;24.00;97.30;;;;;;5021173;28;20205;-74
2022/07/26 03:44:00;;;;;;;3.40;3.10;;;24.00;97.20;;;;;;5025925;28;20453;-74
2022/07/26 03:46:26;;;;;;;4.03;3.70;;;24.00;97.20;;;;;;5022165;28;20263;-74
2022/07/26 03:48:52;;;;;;;3.57;3.20;;;24.00;97.30;;;;;;5018267;28;20189;-74
2022/07/26 03:51:17;;;;;;;3.17;2.87;;;23.90;97.60;;;;;;5022951;28;20181;-74
2022/07/26 03:53:43;;;;;;;4.07;3.53;;;23.90;97.80;;;;;;5022428;28;20291;-74
2022/07/26 03:58:53;;;;;;;3.60;3.17;;;23.90;98.10;;;;;;5023405;28;20583;-73
2022/07/26 04:01:19;;;;;;;3.53;3.23;;;23.80;98.30;;;;;;5022646;28;20439;-73
2022/07/26 04:03:44;;;;;;;4.20;3.40;;;23.80;98.50;;;;;;5024799;28;20971;-73
2022/07/26 04:06:10;;;;;;;3.70;3.30;;;23.70;98.80;;;;;;5016221;28;20302;-73
2022/07/26 04:08:36;;;;;;;4.83;3.40;;;23.60;99.30;;;;;;5023149;28;20181;-73
2022/07/26 04:11:01;;;;;;;3.73;3.43;;;23.60;99.60;;;;;;5025216;28;20192;-73
2022/07/26 04:13:27;;;;;;;3.40;3.10;;;23.60;99.80;;;;;;5019484;28;20185;-74
2022/07/26 04:15:53;;;;;;;5.23;3.70;;;23.60;99.90;;;;;;5020102;28;20200;-73
2022/07/26 04:18:19;;;;;;;5.37;3.93;;;23.60;99.90;;;;;;5016654;28;20181;-73
2022/07/26 04:20:44;;;;;;;4.30;3.90;;;23.50;99.90;;;;;;5023607;28;20250;-74
2022/07/26 04:23:10;;;;;;;3.60;3.30;;;23.50;99.90;;;;;;5019764;28;20415;-74
2022/07/26 04:25:36;;;;;;;3.87;3.53;;;23.50;99.90;;;;;;5015680;28;20200;-74
2022/07/26 04:28:02;;;;;;;3.87;3.57;;;23.50;99.90;;;;;;5023097;28;20204;-73
2022/07/26 04:30:27;;;;;;;3.97;3.53;;;23.50;99.90;;;;;;5020641;28;20243;-74
2022/07/26 04:32:53;;;;;;;4.00;3.53;;;23.40;99.90;;;;;;5022048;28;20176;-74
2022/07/26 04:35:19;;;;;;;4.23;3.83;;;23.40;99.90;;;;;;5021776;28;20212;-74
2022/07/26 04:37:45;;;;;;;4.73;3.30;;;23.40;99.90;;;;;;5025865;28;20263;-74
2022/07/26 04:40:16;;;;;;;4.30;3.40;;;23.40;99.90;;;;;;5020951;28;20180;-74
2022/07/26 04:42:42;;;;;;;4.53;3.60;;;23.30;99.90;;;;;;5016267;28;20404;-74
2022/07/26 04:45:09;;;;;;;4.13;3.77;;;23.20;99.90;;;;;;5026004;28;21158;-74
2022/07/26 04:47:35;;;;;;;4.90;3.60;;;23.20;99.90;;;;;;5022714;28;20188;-74
2022/07/26 04:50:01;;;;;;;4.27;3.60;;;23.20;99.90;;;;;;5022058;28;20477;-74
2022/07/26 04:52:27;;;;;;;4.33;3.93;;;23.30;99.90;;;;;;5025147;28;20173;-74
2022/07/26 04:54:52;;;;;;;4.20;3.80;;;23.30;99.90;;;;;;5024088;28;20240;-74
2022/07/26 04:57:18;;;;;;;3.97;3.67;;;23.20;99.90;;;;;;5021799;28;20260;-74
2022/07/26 04:59:44;;;;;;;3.70;3.40;;;23.20;99.90;;;;;;5026399;28;20176;-74
2022/07/26 05:02:09;;;;;;;4.03;3.33;;;23.20;99.90;;;;;;5013479;28;20609;-74
2022/07/26 05:04:35;;;;;;;4.10;3.30;;;23.10;99.90;;;;;;5025394;28;20199;-75
2022/07/26 05:07:01;;;;;;;4.23;3.70;;;23.10;99.90;;;;;;5023536;28;20200;-74
2022/07/26 05:09:28;;;;;;;3.97;3.30;;;23.10;99.90;;;;;;5020539;28;20188;-74
2022/07/26 05:11:54;;;;;;;6.47;3.60;;;23.10;99.90;;;;;;5027688;28;20549;-74
2022/07/26 05:14:20;;;;;;;3.60;3.30;;;23.10;99.90;;;;;;5018246;28;20550;-74
2022/07/26 05:16:46;;;;;;;4.53;3.67;;;23.10;99.90;;;;;;5022723;28;20216;-75
2022/07/26 05:19:12;;;;;;;6.17;3.90;;;23.10;99.90;;;;;;5026183;28;20410;-74
2022/07/26 05:21:38;;;;;;;4.20;3.80;;;23.20;99.90;;;;;;5023669;28;20419;-74
2022/07/26 05:24:04;;;;;;;3.67;3.37;;;23.00;99.90;;;;;;5019968;28;20432;-74
2022/07/26 05:26:30;;;;;;;4.13;3.73;;;23.00;99.90;;;;;;5031690;28;20204;-74
2022/07/26 05:28:56;;;;;;;4.37;3.53;;;22.90;99.90;;;;;;5032787;28;20948;-74
2022/07/26 05:31:21;;;;;;;4.90;4.10;;;22.80;99.90;;;;;;5028499;28;20246;-73
2022/07/26 05:33:47;;;;;;;5.30;3.43;;;22.80;99.90;;;;;;5032505;28;20196;-73
2022/07/26 05:36:13;;;;;;;4.07;3.60;;;22.80;99.90;;;;;;5031564;28;20625;-73
2022/07/26 05:38:39;;;;;;;8.27;3.90;;;22.80;99.90;;;;;;5023207;28;20180;-74
2022/07/26 05:41:05;;;;;;;4.70;3.97;;;22.70;99.90;;;;;;5022347;28;20318;-74
2022/07/26 05:43:31;;;;;;;4.23;3.10;;;22.80;99.90;;;;;;5024895;28;20506;-75
2022/07/26 05:45:57;;;;;;;4.30;3.10;;;22.80;99.90;;;;;;5031302;28;20454;-74
2022/07/26 05:48:23;;;;;;;4.73;3.57;;;22.80;99.90;;;;;;5028466;28;21023;-74
2022/07/26 05:50:49;;;;;;;6.60;5.40;;;22.90;99.90;;;;;;5024042;28;20522;-75
2022/07/26 05:53:14;;;;;;;3.90;3.60;;;22.80;99.90;;;;;;5028845;28;20668;-75
2022/07/26 05:55:40;;;;;;;5.03;4.00;;;22.70;99.90;;;;;;5031015;28;20246;-74
2022/07/26 05:58:06;;;;;;;5.70;3.13;;;22.70;99.90;;;;;;5022029;28;20183;-74
2022/07/26 06:00:34;;;;;;;3.63;3.00;;;22.80;99.90;;;;;;5016575;28;20795;-75
2022/07/26 06:03:20;;;;;;;3.50;3.20;;;22.80;99.90;;;;;;5026740;28;20686;-75
2022/07/26 06:05:45;;;;;;;4.83;3.13;;;22.70;99.90;;;;;;5032688;28;20471;-74
2022/07/26 06:08:11;;;;;;;3.53;3.23;;;22.90;99.90;;;;;;5027993;28;20435;-74
2022/07/26 06:10:37;;;;;;;4.17;3.10;;;22.90;99.90;;;;;;5027024;28;20216;-74
2022/07/26 06:13:02;;;;;;;3.57;3.27;;;22.90;99.90;;;;;;5016274;28;20292;-74
2022/07/26 06:15:28;;;;;;;6.73;3.53;;;23.00;99.80;;;;;;5023293;28;20592;-75
2022/07/26 06:17:53;;;;;;;4.30;3.63;;;22.90;99.70;;;;;;5024645;28;20750;-74
2022/07/26 06:20:19;;;;;;;3.33;3.03;;;22.90;99.30;;;;;;5024429;28;20180;-76
2022/07/26 06:22:45;;;;;;;3.83;3.47;;;22.80;99.10;;;;;;5025344;28;20180;-74
2022/07/26 06:25:10;;;;;;;3.73;3.23;;;22.70;99.10;;;;;;5025099;28;20204;-74
2022/07/26 06:27:36;;;;;;;5.57;3.17;;;22.70;98.80;;;;;;5017749;28;20719;-74
2022/07/26 06:30:02;;;;;;;4.47;3.30;;;22.70;98.60;;;;;;5023135;28;20230;-74
2022/07/26 06:32:28;;;;;;;5.00;3.03;;;22.70;98.30;;;;;;5028964;28;20613;-74
2022/07/26 06:34:54;;;;;;;2.60;2.40;;;22.70;97.90;;;;;;5018257;28;20456;-74
2022/07/26 06:37:19;;;;;;;4.20;2.90;;;22.70;97.50;;;;;;5024292;28;20188;-74
2022/07/26 06:39:45;;;;;;;3.77;3.03;;;22.60;97.50;;;;;;5018254;28;20181;-74
2022/07/26 06:42:11;;;;;;;4.40;3.00;;;22.60;97.30;;;;;;5024437;28;20187;-74
2022/07/26 06:44:36;;;;;;;7.60;3.10;;;22.60;97.30;;;;;;5026030;28;20987;-74
2022/07/26 06:47:02;;;;;;;4.83;3.20;;;22.60;96.60;;;;;;5020516;28;20204;-74
2022/07/26 06:49:28;;;;;;;3.67;2.70;;;22.70;96.50;;;;;;5021083;28;20180;-74
2022/07/26 06:51:56;;;;;;;3.67;2.87;;;22.70;96.00;;;;;;5022610;28;20176;-74
2022/07/26 06:54:22;;;;;;;3.33;3.03;;;22.70;95.80;;;;;;5012180;28;20706;-74
2022/07/26 06:56:48;;;;;;;3.10;2.80;;;22.70;95.90;;;;;;5039353;28;20458;-74
2022/07/26 06:59:13;;;;;;;3.90;3.10;;;22.60;95.70;;;;;;5024214;28;20432;-74
2022/07/26 07:01:39;;;;;;;4.43;3.00;;;22.70;95.50;;;;;;5018098;28;20181;-74
2022/07/26 07:04:05;;;;;;;3.40;2.90;;;22.70;95.70;;;;;;5024855;28;20615;-74
2022/07/26 07:06:30;;;;;;;3.30;3.00;;;22.80;95.50;;;;;;5023694;28;20209;-76
2022/07/26 07:08:56;;;;;;;6.00;3.10;;;22.80;95.20;;;;;;5021304;28;20224;-76
2022/07/26 07:11:21;;;;;;;4.63;3.07;;;22.90;95.10;;;;;;5022167;28;20619;-76
2022/07/26 07:13:47;;;;;;;8.13;3.17;;;22.90;94.80;;;;;;5014232;28;20239;-76
2022/07/26 07:16:13;;;;;;;7.30;3.00;;;22.90;94.70;;;;;;5022008;28;20209;-75
2022/07/26 07:18:38;;;;;;;3.90;2.80;;;22.90;94.80;;;;;;5023322;28;20184;-75
2022/07/26 07:21:04;;;;;;;3.43;3.10;;;22.90;94.80;;;;;;5025525;28;20288;-76
2022/07/26 07:23:32;;;;;;;8.20;3.23;;;22.90;94.40;;;;;;5022159;28;20532;-76
2022/07/26 07:25:58;;;;;;;5.07;4.57;;;22.80;94.20;;;;;;5013642;28;20602;-76
2022/07/26 07:28:23;;;;;;;3.30;2.83;;;22.80;94.20;;;;;;5007066;28;20461;-76
2022/07/26 07:30:49;;;;;;;3.33;3.03;;;22.70;93.80;;;;;;5023909;28;20257;-76
2022/07/26 07:33:16;;;;;;;2.97;2.77;;;22.70;94.00;;;;;;5030349;28;20981;-76
2022/07/26 07:35:42;;;;;;;3.30;3.00;;;22.70;94.30;;;;;;5020491;28;20459;-75
2022/07/26 07:38:08;;;;;;;5.80;2.80;;;22.60;94.00;;;;;;5019957;28;20438;-75
2022/07/26 07:40:34;;;;;;;4.63;3.03;;;22.70;93.70;;;;;;5024424;28;20808;-76
2022/07/26 07:43:00;;;;;;;4.30;3.03;;;22.80;93.60;;;;;;5026491;28;20180;-76
2022/07/26 07:45:25;;;;;;;5.00;3.13;;;22.80;93.60;;;;;;5023201;28;20230;-76
2022/07/26 07:47:51;;;;;;;3.73;2.90;;;22.90;93.60;;;;;;5017779;28;20519;-75
2022/07/26 07:50:17;;;;;;;3.40;3.10;;;22.80;93.50;;;;;;5028080;28;20771;-75
2022/07/26 07:52:42;;;;;;;3.20;2.90;;;22.80;93.00;;;;;;5021221;28;20276;-75
2022/07/26 07:55:08;;;;;;;3.27;2.97;;;22.80;93.10;;;;;;5024699;28;20660;-75
2022/07/26 07:57:35;;;;;;;3.57;2.70;;;22.80;92.90;;;;;;5023937;28;20697;-75
2022/07/26 08:00:03;;;;;;;4.10;3.03;;;22.80;93.30;;;;;;5019474;28;20497;-75
2022/07/26 08:02:28;;;;;;;3.80;3.07;;;22.90;93.10;;;;;;5020818;28;20415;-75
2022/07/26 08:04:54;;;;;;;3.30;3.00;;;23.00;92.90;;;;;;5024636;28;20435;-75
2022/07/26 08:07:23;;;;;;;3.20;2.90;;;22.90;92.90;;;;;;5027917;28;20189;-75
2022/07/26 08:09:49;;;;;;;3.77;2.50;;;23.00;92.90;;;;;;5019197;28;20239;-75
2022/07/26 08:12:16;;;;;;;2.73;2.53;;;23.00;93.00;;;;;;5025051;28;20990;-75
2022/07/26 08:14:41;;;;;;;3.53;2.70;;;23.00;93.00;;;;;;5026140;28;20203;-77
2022/07/26 08:17:07;;;;;;;4.20;3.13;;;23.00;92.70;;;;;;5029356;28;20454;-77
2022/07/26 08:19:33;;;;;;;5.90;3.00;;;23.10;92.70;;;;;;5026954;28;20192;-75
2022/07/26 08:21:59;;;;;;;3.70;2.70;;;23.20;92.60;;;;;;5026919;28;20804;-75
2022/07/26 08:24:24;;;;;;;4.43;2.80;;;23.30;92.40;;;;;;5026785;28;20181;-73
2022/07/26 08:26:52;;;;;;;3.27;2.97;;;23.30;91.90;;;;;;5020642;28;20683;-75
2022/07/26 08:29:18;;;;;;;3.30;2.60;;;23.20;92.10;;;;;;5019410;28;20255;-75
2022/07/26 08:31:44;;;;;;;4.13;2.67;;;23.30;91.70;;;;;;5027417;28;20419;-75
2022/07/26 08:34:09;;;;;;;3.73;2.87;;;23.30;91.60;;;;;;5025389;28;20207;-73
2022/07/26 08:36:35;;;;;;;3.60;2.70;;;23.30;91.80;;;;;;5025803;28;20451;-76
2022/07/26 08:39:01;;;;;;;8.10;2.70;;;23.40;91.50;;;;;;5012091;28;20177;-73
2022/07/26 08:41:27;;;;;;;4.30;3.63;;;23.50;90.80;;;;;;5026903;28;20246;-76
2022/07/26 08:43:52;;;;;;;3.13;2.83;;;23.30;90.70;;;;;;5013997;28;20658;-75
2022/07/26 08:46:20;;;;;;;4.00;2.70;;;23.40;90.90;;;;;;5026161;28;20533;-76
2022/07/26 08:48:45;;;;;;;3.17;2.87;;;23.60;90.70;;;;;;5016946;28;20588;-73
2022/07/26 08:51:12;;;;;;;4.43;3.13;;;23.60;90.10;;;;;;5025301;28;20448;-73
2022/07/26 08:53:38;;;;;;;4.23;3.03;;;23.60;89.90;;;;;;5023540;28;20184;-73
2022/07/26 08:56:04;;;;;;;3.30;3.00;;;23.70;89.60;;;;;;5022718;28;20466;-74
2022/07/26 08:58:34;;;;;;;4.07;2.83;;;23.80;89.40;;;;;;5016266;28;20886;-74
2022/07/26 09:01:08;;;;;;;3.13;2.90;;;23.80;89.00;;;;;;5019960;28;20550;-74
2022/07/26 09:03:36;;;;;;;2.97;2.67;;;23.90;88.80;;;;;;5029289;28;20623;-73
2022/07/26 09:06:22;;;;;;;2.90;2.70;;;23.80;88.90;;;;;;5027346;28;20438;-74
2022/07/26 09:08:49;;;;;;;3.23;2.93;;;23.70;88.50;;;;;;5027621;28;20765;-74
2022/07/26 09:11:32;;;;;;;3.40;3.10;;;23.70;89.20;;;;;;5025678;28;20568;-74
2022/07/26 09:14:02;;;;;;;3.17;2.87;;;23.80;88.60;;;;;;5026189;28;20466;-74
2022/07/26 09:16:28;;;;;;;6.17;3.03;;;23.80;88.40;;;;;;5022098;28;20486;-74
2022/07/26 09:19:12;;;;;;;3.97;3.40;;;23.90;86.90;;;;;;5027393;28;20410;-74
2022/07/26 09:21:38;;;;;;;3.67;3.07;;;23.90;87.30;;;;;;5020061;28;20564;-75
2022/07/26 09:24:04;;;;;;;2.83;2.60;;;24.00;87.70;;;;;;5027308;28;20546;-74
2022/07/26 09:26:29;;;;;;;3.50;2.90;;;24.10;87.00;;;;;;5025688;28;20615;-76
2022/07/26 09:29:21;;;;;;;3.03;2.83;;;24.30;85.10;;;;;;5026743;28;20536;-79
2022/07/26 09:31:47;;;;;;;3.03;2.83;;;24.40;85.20;;;;;;5026250;28;20188;-76
2022/07/26 09:34:23;;;;;;;3.70;2.93;;;24.40;83.90;;;;;;5025934;28;20462;-77
2022/07/26 09:36:53;;;;;;;11.50;3.13;;;24.40;82.90;;;;;;5037814;28;20197;-77
2022/07/26 09:39:19;;;;;;;2.83;2.63;;;24.40;83.10;;;;;;5033973;28;20423;-78
2022/07/26 09:41:45;;;;;;;3.70;2.87;;;24.30;82.50;;;;;;5029578;28;20548;-78
2022/07/26 09:44:24;;;;;;;3.33;2.80;;;24.40;82.30;;;;;;5023076;28;20188;-77
2022/07/26 09:46:56;;;;;;;3.93;2.93;;;24.50;82.40;;;;;;5032663;28;20442;-78
2022/07/26 09:49:22;;;;;;;4.07;2.90;;;24.70;81.80;;;;;;5030316;28;20430;-77
2022/07/26 09:51:51;;;;;;;4.00;3.13;;;24.90;81.50;;;;;;5026488;28;20443;-78
2022/07/26 09:54:37;;;;;;;3.43;2.80;;;24.80;80.50;;;;;;5024575;28;20823;-77
2022/07/26 09:57:03;;;;;;;3.47;2.70;;;24.80;80.70;;;;;;5021559;28;20554;-78
2022/07/26 09:59:29;;;;;;;2.70;2.50;;;24.80;80.90;;;;;;5033526;28;20521;-77
2022/07/26 10:01:57;;;;;;;3.70;2.73;;;24.70;81.30;;;;;;5030040;28;20192;-77
2022/07/26 10:04:23;;;;;;;3.07;2.77;;;24.70;80.60;;;;;;5022085;28;21385;-78
2022/07/26 10:06:49;;;;;;;4.63;3.47;;;24.80;80.20;;;;;;5023093;28;20479;-77
2022/07/26 10:09:16;;;;;;;2.67;2.47;;;24.90;78.80;;;;;;5024370;28;20585;-78
2022/07/26 10:11:46;;;;;;;3.60;2.87;;;24.80;77.40;;;;;;5023652;28;20264;-78
2022/07/26 10:14:48;;;;;;;3.90;2.40;;;24.70;77.20;;;;;;5031754;28;21213;-77
2022/07/26 10:17:28;;;;;;;3.57;2.73;;;24.70;77.20;;;;;;5027665;28;20484;-77
2022/07/26 10:20:04;;;;;;;3.27;2.60;;;24.80;76.70;;;;;;5021319;28;20860;-76
2022/07/26 10:22:32;;;;;;;3.13;2.53;;;24.80;77.50;;;;;;5020260;28;20419;-77
2022/07/26 10:25:18;;;;;;;3.40;2.77;;;24.90;77.70;;;;;;5031099;28;20424;-78
2022/07/26 10:27:58;;;;;;;2.80;2.60;;;24.90;77.50;;;;;;5025794;28;21138;-76
2022/07/26 10:30:26;;;;;;;3.40;2.60;;;25.00;76.60;;;;;;5023726;28;20711;-77
2022/07/26 10:33:14;;;;;;;3.10;2.80;;;24.90;77.40;;;;;;5038670;28;20906;-77
2022/07/26 10:35:42;;;;;;;2.70;2.50;;;25.00;76.60;;;;;;5028789;28;21117;-77
2022/07/26 10:38:07;;;;;;;4.57;2.40;;;25.10;75.80;;;;;;5028644;28;20435;-77
2022/07/26 10:40:35;;;;;;;5.00;2.60;;;25.20;75.10;;;;;;5024493;28;20438;-76
2022/07/26 10:43:13;;;;;;;3.33;2.70;;;25.30;75.30;;;;;;5028191;28;20184;-77
2022/07/26 10:45:39;;;;;;;3.50;3.00;;;25.50;75.50;;;;;;5026188;28;20524;-77
2022/07/26 10:48:11;;;;;;;3.63;2.43;;;25.50;75.80;;;;;;5022552;28;20432;-77
2022/07/26 10:50:37;;;;;;;3.80;3.23;;;25.50;76.00;;;;;;5023493;28;20451;-78
2022/07/26 10:53:04;;;;;;;3.40;3.10;;;25.60;74.60;;;;;;5027990;28;20442;-76
2022/07/26 10:55:29;;;;;;;3.00;2.80;;;25.60;75.20;;;;;;5027787;28;20463;-76
2022/07/26 10:57:55;;;;;;;2.80;2.60;;;25.70;75.20;;;;;;5027117;28;21075;-77
2022/07/26 11:00:24;;;;;;;2.97;2.77;;;25.80;73.80;;;;;;5028001;28;20589;-77
2022/07/26 11:02:57;;;;;;;3.80;2.70;;;26.00;73.00;;;;;;5025232;28;20663;-77
2022/07/26 11:05:29;;;;;;;4.30;3.00;;;26.10;72.00;;;;;;5026767;28;20960;-76
2022/07/26 11:08:07;;;;;;;2.70;2.50;;;26.20;72.70;;;;;;5023105;28;20497;-77
2022/07/26 11:10:37;;;;;;;3.20;2.90;;;26.30;71.90;;;;;;5026345;28;20488;-77
2022/07/26 11:13:06;;;;;;;3.10;2.80;;;26.30;71.40;;;;;;5021632;28;20435;-77
2022/07/26 11:15:34;;;;;;;2.70;2.50;;;26.30;71.20;;;;;;5021364;28;20545;-77
2022/07/26 11:18:07;;;;;;;2.90;2.60;;;26.20;71.10;;;;;;5026525;28;20523;-77
2022/07/26 11:20:33;;;;;;;3.90;2.87;;;26.10;71.50;;;;;;5017575;28;20925;-77
2022/07/26 11:22:59;;;;;;;3.70;3.10;;;26.10;71.50;;;;;;5022936;28;20415;-76
2022/07/26 11:25:25;;;;;;;4.00;2.80;;;25.80;71.00;;;;;;5021057;28;20235;-76
2022/07/26 11:28:04;;;;;;;2.53;2.33;;;25.80;72.60;;;;;;5028688;28;20196;-76
2022/07/26 11:30:30;;;;;;;5.13;2.90;;;25.90;73.00;;;;;;5025434;28;20442;-76
2022/07/26 11:33:00;;;;;;;3.13;2.70;;;25.90;72.50;;;;;;5030070;28;20522;-76
2022/07/26 11:35:26;;;;;;;2.97;2.47;;;25.90;72.50;;;;;;5023272;28;20458;-76
2022/07/26 11:37:53;;;;;;;2.60;2.40;;;25.90;72.60;;;;;;5023235;28;20442;-77
2022/07/26 11:40:39;;;;;;;3.20;2.90;;;25.90;71.70;;;;;;5026023;28;20427;-76
2022/07/26 11:43:04;;;;;;;3.10;2.90;;;26.00;71.80;;;;;;5019662;28;20805;-76
2022/07/26 11:45:30;;;;;;;2.87;2.60;;;26.10;70.10;;;;;;5020407;28;20528;-77
2022/07/26 11:47:59;;;;;;;3.17;2.63;;;26.10;70.70;;;;;;5028207;28;20186;-77
2022/07/26 11:50:24;;;;;;;3.20;2.90;;;26.20;70.00;;;;;;5024123;28;20557;-78
2022/07/26 11:52:51;;;;;;;2.87;2.50;;;26.30;70.10;;;;;;5020821;28;20416;-78
2022/07/26 11:55:25;;;;;;;3.13;2.60;;;26.40;69.00;;;;;;5022574;28;20212;-78
2022/07/26 11:57:51;;;;;;;3.17;2.93;;;26.60;69.50;;;;;;5018783;28;20421;-77
2022/07/26 12:00:17;;;;;;;2.97;2.77;;;26.80;69.10;;;;;;5020872;28;20645;-77
2022/07/26 12:02:43;;;;;;;2.70;2.47;;;26.80;68.50;;;;;;5032910;28;20175;-78
2022/07/26 12:05:20;;;;;;;2.80;2.60;;;26.70;67.50;;;;;;5017954;28;20455;-77
2022/07/26 12:08:01;;;;;;;4.53;2.80;;;26.70;66.30;;;;;;5021926;28;20184;-76
2022/07/26 12:10:28;;;;;;;3.30;3.00;;;27.00;66.90;;;;;;5022572;28;21028;-76
2022/07/26 12:13:14;;;;;;;4.13;2.90;;;27.30;66.70;;;;;;5027336;28;20465;-76
2022/07/26 12:15:58;;;;;;;4.80;2.93;;;27.50;65.90;;;;;;5025347;28;20471;-76
2022/07/26 12:18:28;;;;;;;3.13;2.90;;;27.40;66.10;;;;;;5024791;28;20431;-76
2022/07/26 12:21:05;;;;;;;2.97;2.77;;;27.40;66.50;;;;;;5026559;28;20423;-77
2022/07/26 12:23:46;;;;;;;8.47;3.40;;;27.60;64.70;;;;;;5027800;28;20435;-76
2022/07/26 12:26:29;;;;;;;5.60;2.93;;;27.80;65.40;;;;;;5027035;28;20450;-76
2022/07/26 12:28:56;;;;;;;7.87;4.50;;;28.20;63.00;;;;;;5027347;28;20521;-77
2022/07/26 12:31:29;;;;;;;3.57;3.00;;;28.30;61.70;;;;;;5028339;28;20807;-76
2022/07/26 12:33:56;;;;;;;3.93;3.00;;;28.20;61.20;;;;;;5029695;28;20437;-77
2022/07/26 12:36:23;;;;;;;2.80;2.60;;;28.10;60.90;;;;;;5021998;28;21367;-77
2022/07/26 12:38:52;;;;;;;3.27;2.50;;;27.80;61.50;;;;;;5033097;28;20940;-76
2022/07/26 12:41:34;;;;;;;3.10;2.80;;;27.80;62.40;;;;;;5043444;28;20968;-76
2022/07/26 12:44:00;;;;;;;4.83;3.20;;;27.80;62.50;;;;;;5024538;28;20430;-76
2022/07/26 12:46:26;;;;;;;3.40;3.07;;;27.90;62.20;;;;;;5030668;28;20460;-76
2022/07/26 12:48:51;;;;;;;6.43;2.70;;;27.60;61.90;;;;;;5028432;28;20601;-76
2022/07/26 12:51:17;;;;;;;3.53;2.93;;;27.60;62.50;;;;;;5028140;28;20678;-76
2022/07/26 12:53:43;;;;;;;7.10;2.90;;;27.60;62.70;;;;;;5025215;28;20181;-76